createdAt,value
2019-04-22T00:36:35.226Z,0.00
2019-04-22T00:37:43.781Z,0.00
2019-04-22T00:38:38.646Z,0.00
2019-04-22T00:39:42.599Z,0.00
2019-04-22T00:40:41.246Z,0.00
2019-04-22T00:41:43.823Z,0.00
2019-04-22T00:42:41.559Z,0.00
2019-04-22T00:43:39.612Z,0.00
2019-04-22T00:44:40.330Z,0.00
2019-04-22T00:45:52.516Z,0.00
2019-04-22T00:46:43.207Z,0.00
2019-04-22T00:47:41.473Z,0.00
2019-04-22T00:48:43.124Z,0.00
2019-04-22T00:50:37.428Z,0.00
2019-04-22T00:51:44.934Z,0.00
2019-04-22T00:52:39.912Z,0.00
2019-04-22T00:53:39.186Z,0.00
2019-04-22T00:54:45.623Z,0.00
2019-04-22T00:55:37.866Z,0.00
2019-04-22T00:56:35.743Z,0.00
2019-04-22T00:57:42.453Z,0.00
2019-04-22T00:58:42.687Z,0.00
2019-04-22T00:59:42.132Z,0.00
2019-04-22T01:00:42.021Z,0.00
2019-04-22T01:01:37.247Z,0.00
2019-04-22T01:02:44.899Z,0.00
2019-04-22T01:03:44.737Z,0.00
2019-04-22T01:04:39.316Z,0.00
2019-04-22T01:05:40.433Z,0.00
2019-04-22T01:06:41.649Z,0.00
2019-04-22T01:07:35.803Z,0.00
2019-04-22T01:08:48.142Z,0.00
2019-04-22T01:09:38.870Z,0.00
2019-04-22T01:10:39.667Z,0.00
2019-04-22T01:11:38.837Z,0.00
2019-04-22T01:12:39.592Z,0.00
2019-04-22T01:13:38.764Z,0.00
2019-04-22T01:14:42.987Z,0.00
2019-04-22T01:15:40.429Z,0.00
2019-04-22T01:16:44.222Z,0.00
2019-04-22T01:17:41.759Z,0.00
2019-04-22T01:18:37.718Z,0.00
2019-04-22T01:19:45.072Z,0.00
2019-04-22T01:21:13.387Z,0.00
2019-04-22T01:21:40.381Z,0.00
2019-04-22T01:22:36.270Z,0.00
2019-04-22T01:23:37.564Z,0.00
2019-04-22T01:24:32.776Z,0.00
2019-04-22T01:25:30.574Z,0.00
2019-04-22T01:26:28.998Z,0.00
2019-04-22T01:27:33.438Z,0.00
2019-04-22T01:28:27.866Z,0.00
2019-04-22T01:29:26.177Z,0.00
2019-04-22T01:30:24.198Z,0.00
2019-04-22T01:31:19.642Z,0.00
2019-04-22T01:32:22.697Z,0.00
2019-04-22T01:33:23.821Z,0.00
2019-04-22T01:34:27.867Z,0.00
2019-04-22T01:35:31.149Z,0.00
2019-04-22T01:36:35.270Z,0.00
2019-04-22T01:37:34.355Z,0.00
2019-04-22T01:38:36.684Z,0.00
2019-04-22T01:39:46.380Z,0.00
2019-04-22T01:40:45.514Z,0.00
2019-04-22T01:41:48.613Z,0.00
2019-04-22T01:42:43.238Z,0.00
2019-04-22T01:43:54.411Z,0.00
2019-04-22T01:44:40.227Z,0.00
2019-04-22T01:45:41.396Z,0.00
2019-04-22T01:46:47.776Z,0.00
2019-04-22T01:48:39.409Z,0.00
2019-04-22T01:49:40.225Z,0.00
2019-04-22T01:50:41.092Z,0.00
2019-04-22T01:51:56.617Z,0.00
2019-04-22T01:52:39.869Z,0.00
2019-04-22T01:53:43.291Z,0.00
2019-04-22T01:54:43.384Z,0.00
2019-04-22T01:56:42.496Z,0.00
2019-04-22T01:57:37.706Z,0.00
2019-04-22T01:58:36.148Z,0.00
2019-04-22T01:59:31.829Z,0.00
2019-04-22T02:00:40.151Z,0.00
2019-04-22T02:01:43.696Z,0.00
2019-04-22T02:02:42.359Z,0.00
2019-04-22T02:03:41.430Z,0.00
2019-04-22T02:05:40.216Z,0.00
2019-04-22T02:06:44.623Z,0.00
2019-04-22T02:07:42.464Z,0.00
2019-04-22T02:08:44.673Z,0.00
2019-04-22T02:10:49.255Z,0.00
2019-04-22T02:11:48.327Z,0.00
2019-04-22T02:12:43.362Z,0.00
2019-04-22T02:13:42.773Z,0.00
2019-04-22T02:14:48.457Z,0.00
2019-04-22T02:15:39.925Z,0.00
2019-04-22T02:16:41.293Z,0.00
2019-04-22T02:20:35.930Z,0.00
2019-04-22T02:21:42.551Z,0.00
2019-04-22T02:23:00.823Z,0.00
2019-04-22T02:23:53.973Z,0.00
2019-04-22T02:24:59.049Z,0.00
2019-04-22T02:25:42.703Z,0.00
2019-04-22T02:26:41.976Z,0.00
2019-04-22T02:27:50.862Z,0.00
2019-04-22T02:28:40.101Z,0.00
2019-04-22T02:29:44.472Z,0.00
2019-04-22T02:31:01.901Z,0.00
2019-04-22T02:31:44.485Z,0.00
2019-04-22T02:33:11.486Z,0.00
2019-04-22T02:34:45.982Z,0.00
2019-04-22T02:35:58.231Z,0.00
2019-04-22T02:36:43.139Z,0.00
2019-04-22T02:37:35.859Z,0.00
2019-04-22T02:39:45.191Z,0.00
2019-04-22T02:41:06.712Z,0.00
2019-04-22T02:42:42.840Z,0.00
2019-04-22T02:44:42.969Z,0.00
2019-04-22T02:47:01.167Z,0.00
2019-04-22T02:48:26.213Z,0.00
2019-04-22T02:50:01.751Z,0.00
2019-04-22T02:50:45.361Z,0.00
2019-04-22T02:51:36.664Z,0.00
2019-04-22T02:54:19.374Z,0.00
2019-04-22T02:55:51.211Z,0.00
2019-04-22T02:57:04.413Z,0.00
2019-04-22T02:59:00.127Z,0.00
2019-04-22T03:00:44.358Z,0.00
2019-04-22T03:01:41.236Z,0.00
2019-04-22T03:03:11.067Z,0.00
2019-04-22T03:04:01.656Z,0.00
2019-04-22T03:04:59.872Z,0.00
2019-04-22T03:06:55.401Z,0.00
2019-04-22T03:07:53.789Z,0.00
2019-04-22T03:08:45.517Z,0.00
2019-04-22T03:09:59.542Z,0.00
2019-04-22T03:12:41.345Z,0.00
2019-04-22T03:15:52.847Z,0.00
2019-04-22T03:17:45.656Z,0.00
2019-04-22T03:19:09.906Z,0.00
2019-04-22T03:19:50.659Z,0.00
2019-04-22T03:20:51.883Z,0.00
2019-04-22T03:22:52.070Z,0.00
2019-04-22T03:23:55.893Z,0.00
2019-04-22T03:24:51.305Z,0.00
2019-04-22T03:26:05.040Z,0.00
2019-04-22T03:27:38.797Z,0.00
2019-04-22T03:30:10.426Z,0.00
2019-04-22T03:30:53.600Z,0.00
2019-04-22T03:34:15.433Z,0.00
2019-04-22T03:35:19.153Z,0.00
2019-04-22T03:42:52.455Z,0.00
2019-04-22T03:43:39.555Z,0.00
2019-04-22T03:47:41.489Z,0.00
2019-04-22T03:48:26.277Z,0.00
2019-04-22T03:49:39.285Z,4.00
2019-04-22T03:50:25.884Z,4.00
2019-04-22T03:51:36.149Z,0.00
2019-04-22T03:52:22.887Z,4.00
2019-04-22T03:54:40.335Z,0.00
2019-04-22T03:56:56.427Z,4.00
2019-04-22T03:57:40.589Z,4.00
2019-04-22T03:58:21.848Z,8.00
2019-04-22T03:59:33.506Z,8.00
2019-04-22T04:00:35.606Z,12.00
2019-04-22T04:01:37.002Z,8.00
2019-04-22T04:02:38.662Z,12.00
2019-04-22T04:03:28.951Z,12.00
2019-04-22T04:05:41.529Z,16.00
2019-04-22T04:06:36.616Z,20.00
2019-04-22T04:07:47.439Z,24.00
2019-04-22T04:09:32.160Z,28.00
2019-04-22T04:10:37.656Z,36.00
2019-04-22T04:12:28.823Z,44.00
2019-04-22T04:17:34.877Z,76.00
2019-04-22T04:18:33.070Z,80.00
2019-04-22T04:19:34.928Z,88.00
2019-04-22T04:20:32.282Z,100.00
2019-04-22T04:24:57.912Z,140.00
2019-04-22T04:27:43.179Z,172.00
2019-04-22T04:29:51.481Z,200.00
2019-04-22T04:33:36.037Z,260.00
2019-04-22T04:34:43.739Z,276.00
2019-04-22T04:36:35.513Z,308.00
2019-04-22T04:37:42.621Z,328.00
2019-04-22T04:38:28.842Z,344.00
2019-04-22T04:43:25.225Z,444.00
2019-04-22T04:45:00.866Z,464.00
2019-04-22T04:45:41.047Z,484.00
2019-04-22T04:46:42.853Z,504.00
2019-04-22T04:47:44.039Z,528.00
2019-04-22T04:48:34.980Z,552.00
2019-04-22T04:50:34.803Z,596.00
2019-04-22T04:51:32.998Z,624.00
2019-04-22T04:52:39.802Z,648.00
2019-04-22T04:54:32.886Z,700.00
2019-04-22T04:55:35.105Z,732.00
2019-04-22T04:56:38.513Z,756.00
2019-04-22T04:57:41.002Z,788.00
2019-04-22T04:58:36.763Z,824.00
2019-04-22T04:59:39.386Z,856.00
2019-04-22T05:01:35.589Z,932.00
2019-04-22T05:02:37.383Z,1108.00
2019-04-22T05:03:39.712Z,3952.00
2019-04-22T05:04:31.242Z,6632.00
2019-04-22T05:05:29.498Z,7552.00
2019-04-22T05:06:36.896Z,7456.00
2019-04-22T05:08:39.034Z,7680.00
2019-04-22T05:09:34.046Z,8000.00
2019-04-22T05:10:41.183Z,6748.00
2019-04-22T05:11:38.210Z,6532.00
2019-04-22T05:13:35.127Z,7624.00
2019-04-22T05:14:36.866Z,6816.00
2019-04-22T05:15:23.068Z,6260.00
2019-04-22T05:17:25.772Z,6276.00
2019-04-22T05:18:29.330Z,6472.00
2019-04-22T05:19:26.215Z,4572.00
2019-04-22T05:20:32.013Z,3992.00
2019-04-22T05:22:28.558Z,6644.00
2019-04-22T05:23:38.816Z,8104.00
2019-04-22T05:24:28.474Z,8208.00
2019-04-22T05:25:24.466Z,5688.00
2019-04-22T05:26:30.984Z,3480.00
2019-04-22T05:27:29.432Z,3840.00
2019-04-22T05:28:26.615Z,3812.00
2019-04-22T05:29:34.608Z,4376.00
2019-04-22T05:31:15.427Z,5524.00
2019-04-22T05:32:27.143Z,7732.00
2019-04-22T05:33:26.287Z,5488.00
2019-04-22T05:34:22.554Z,8596.00
2019-04-22T05:40:22.008Z,11616.00
2019-04-22T05:41:10.140Z,10248.00
2019-04-22T05:42:15.219Z,7020.00
2019-04-22T05:43:13.902Z,4920.00
2019-04-22T05:44:14.751Z,3864.00
2019-04-22T05:45:14.809Z,10116.00
2019-04-22T05:46:13.965Z,9016.00
2019-04-22T05:47:15.209Z,6064.00
2019-04-22T05:48:15.021Z,6948.00
2019-04-22T05:49:18.868Z,5960.00
2019-04-22T05:50:16.879Z,5540.00
2019-04-22T05:51:09.696Z,4776.00
2019-04-22T05:52:17.242Z,6908.00
2019-04-22T05:53:07.093Z,8608.00
2019-04-22T05:54:14.744Z,5396.00
2019-04-22T05:55:14.321Z,4200.00
2019-04-22T05:56:23.877Z,4940.00
2019-04-22T05:57:14.522Z,5196.00
2019-04-22T05:58:15.248Z,6196.00
2019-04-22T05:59:10.348Z,7524.00
2019-04-22T06:00:17.970Z,6736.00
2019-04-22T06:03:12.285Z,6700.00
2019-04-22T06:04:09.797Z,4044.00
2019-04-22T06:05:11.961Z,3616.00
2019-04-22T06:06:16.340Z,4236.00
2019-04-22T06:07:13.678Z,3936.00
2019-04-22T06:08:13.256Z,7684.00
2019-04-22T06:09:12.545Z,2844.00
2019-04-22T06:10:22.903Z,2472.00
2019-04-22T06:11:20.901Z,2464.00
2019-04-22T06:12:10.703Z,3368.00
2019-04-22T06:13:06.055Z,6024.00
2019-04-22T06:14:11.630Z,6248.00
2019-04-22T06:15:12.793Z,3788.00
2019-04-22T06:16:09.253Z,3416.00
2019-04-22T06:18:16.140Z,2232.00
2019-04-22T06:19:13.769Z,2436.00
2019-04-22T06:20:10.597Z,2628.00
2019-04-22T06:21:12.652Z,3316.00
2019-04-22T06:22:25.407Z,3824.00
2019-04-22T06:24:16.618Z,3660.00
2019-04-22T06:25:22.716Z,2768.00
2019-04-22T06:26:27.223Z,2568.00
2019-04-22T06:27:19.122Z,3180.00
2019-04-22T06:28:22.017Z,5344.00
2019-04-22T06:29:15.074Z,7548.00
2019-04-22T06:30:17.296Z,7692.00
2019-04-22T06:31:21.040Z,9888.00
2019-04-22T06:33:15.302Z,7052.00
2019-04-22T06:34:17.222Z,28384.00
2019-04-22T06:35:19.831Z,12032.00
2019-04-22T06:36:21.107Z,30144.00
2019-04-22T06:37:13.054Z,30848.00
2019-04-22T06:39:17.344Z,25792.00
2019-04-22T06:40:16.418Z,32608.00
2019-04-22T06:41:16.848Z,7156.00
2019-04-22T06:42:13.426Z,10488.00
2019-04-22T06:43:33.786Z,4400.00
2019-04-22T06:45:20.463Z,3156.00
2019-04-22T06:46:14.709Z,3056.00
2019-04-22T06:47:25.242Z,2960.00
2019-04-22T06:49:18.742Z,5220.00
2019-04-22T06:50:16.418Z,3428.00
2019-04-22T06:51:18.009Z,10332.00
2019-04-22T06:52:17.038Z,28576.00
2019-04-22T06:53:09.095Z,17760.00
2019-04-22T06:54:14.108Z,24864.00
2019-04-22T06:55:15.360Z,40128.00
2019-04-22T06:56:13.623Z,53280.00
2019-04-22T06:57:13.791Z,55104.00
2019-04-22T06:58:10.685Z,54464.00
2019-04-22T06:59:16.865Z,56448.00
2019-04-22T07:00:14.376Z,56768.00
2019-04-22T07:01:18.214Z,56160.00
2019-04-22T07:02:18.096Z,55680.00
2019-04-22T07:04:14.141Z,56736.00
2019-04-22T07:05:19.781Z,57920.00
2019-04-22T07:06:12.763Z,58048.00
2019-04-22T07:07:14.158Z,57664.00
2019-04-22T07:08:30.474Z,58976.00
2019-04-22T07:10:23.815Z,58208.00
2019-04-22T07:11:06.238Z,59168.00
2019-04-22T07:12:11.627Z,50432.00
2019-04-22T07:13:21.116Z,58080.00
2019-04-22T07:14:11.937Z,58592.00
2019-04-22T07:15:24.309Z,54624.00
2019-04-22T07:16:13.272Z,35520.00
2019-04-22T07:17:34.405Z,36416.00
2019-04-22T07:23:54.014Z,0.00
2019-04-22T07:24:47.718Z,6172.00
2019-04-22T07:27:08.158Z,3968.00
2019-04-22T07:29:29.341Z,28640.00
2019-04-22T07:30:26.228Z,43296.00
2019-04-22T07:31:23.537Z,37856.00
2019-04-22T07:37:43.535Z,3576.00
2019-04-22T07:38:35.921Z,3864.00
2019-04-22T07:44:26.423Z,7460.00
2019-04-22T07:48:33.474Z,20416.00
2019-04-22T07:50:44.795Z,4716.00
2019-04-22T07:51:26.856Z,4164.00
2019-04-22T07:53:21.935Z,3992.00
2019-04-22T07:54:26.383Z,3748.00
2019-04-22T07:56:12.213Z,3840.00
2019-04-22T07:58:16.798Z,4176.00
2019-04-22T07:59:09.475Z,4044.00
2019-04-22T08:00:15.692Z,4040.00
2019-04-22T08:01:15.613Z,8680.00
2019-04-22T08:02:10.363Z,4348.00
2019-04-22T08:03:14.618Z,3036.00
2019-04-22T08:04:16.015Z,3800.00
2019-04-22T08:06:07.911Z,12604.00
2019-04-22T08:06:57.547Z,3504.00
2019-04-22T08:10:39.044Z,3612.00
2019-04-22T08:11:43.714Z,5004.00
2019-04-22T08:14:02.590Z,5360.00
2019-04-22T08:14:50.020Z,15616.00
2019-04-22T08:15:48.331Z,4172.00
2019-04-22T08:16:51.974Z,3428.00
2019-04-22T08:17:59.854Z,3360.00
2019-04-22T08:18:47.429Z,3384.00
2019-04-22T08:19:50.130Z,3332.00
2019-04-22T08:20:47.293Z,3336.00
2019-04-22T08:21:49.430Z,3324.00
2019-04-22T08:22:52.204Z,3320.00
2019-04-22T08:24:51.261Z,3616.00
2019-04-22T08:25:43.128Z,3924.00
2019-04-22T08:26:52.021Z,4760.00
2019-04-22T08:27:45.586Z,3320.00
2019-04-22T08:28:45.838Z,3736.00
2019-04-22T08:30:48.496Z,3488.00
2019-04-22T08:31:49.656Z,3308.00
2019-04-22T08:32:47.452Z,3304.00
2019-04-22T08:33:49.636Z,3348.00
2019-04-22T08:34:42.772Z,3348.00
2019-04-22T08:36:05.001Z,3292.00
2019-04-22T08:37:13.761Z,3300.00
2019-04-22T08:39:10.954Z,3552.00
2019-04-22T08:39:45.327Z,3704.00
2019-04-22T08:40:53.361Z,3456.00
2019-04-22T08:41:41.546Z,3304.00
2019-04-22T08:42:58.376Z,3296.00
2019-04-22T08:43:55.884Z,3412.00
2019-04-22T08:45:57.958Z,3332.00
2019-04-22T08:47:42.297Z,3320.00
2019-04-22T08:48:48.390Z,4176.00
2019-04-22T08:49:50.783Z,3308.00
2019-04-22T08:50:44.682Z,3356.00
2019-04-22T08:51:42.630Z,3308.00
2019-04-22T08:52:51.043Z,3288.00
2019-04-22T08:53:49.970Z,3288.00
2019-04-22T08:54:46.943Z,3292.00
2019-04-22T08:55:54.174Z,3384.00
2019-04-22T08:58:03.306Z,3288.00
2019-04-22T08:58:50.160Z,3332.00
2019-04-22T08:59:48.713Z,4536.00
2019-04-22T09:00:52.914Z,7656.00
2019-04-22T09:01:47.176Z,4688.00
2019-04-22T09:02:46.782Z,3364.00
2019-04-22T09:03:50.449Z,3388.00
2019-04-22T09:04:45.043Z,6288.00
2019-04-22T09:05:55.355Z,6216.00
2019-04-22T09:07:02.423Z,10940.00
2019-04-22T09:07:47.115Z,14984.00
2019-04-22T09:08:48.737Z,6324.00
2019-04-22T09:09:44.419Z,4976.00
2019-04-22T09:10:50.350Z,3612.00
2019-04-22T09:11:52.966Z,3532.00
2019-04-22T09:13:03.119Z,11128.00
2019-04-22T09:13:50.421Z,27552.00
2019-04-22T09:15:45.505Z,6576.00
2019-04-22T09:16:43.988Z,0.00
2019-04-22T09:17:47.817Z,6068.00
2019-04-22T09:18:48.741Z,16480.00
2019-04-22T09:19:50.054Z,3712.00
2019-04-22T09:20:49.292Z,5480.00
2019-04-22T09:21:53.234Z,8124.00
2019-04-22T09:22:51.523Z,4908.00
2019-04-22T09:24:46.973Z,4252.00
2019-04-22T09:26:03.814Z,4484.00
2019-04-22T09:26:47.661Z,3668.00
2019-04-22T09:27:51.215Z,3748.00
2019-04-22T09:28:52.317Z,5400.00
2019-04-22T09:29:43.096Z,3664.00
2019-04-22T09:30:47.088Z,3776.00
2019-04-22T09:31:47.413Z,3824.00
2019-04-22T09:32:44.726Z,4404.00
2019-04-22T09:33:43.374Z,4104.00
2019-04-22T09:34:47.269Z,8968.00
2019-04-22T09:36:50.225Z,3568.00
2019-04-22T09:37:50.399Z,4300.00
2019-04-22T09:38:41.136Z,3956.00
2019-04-22T09:39:53.436Z,5184.00
2019-04-22T09:40:50.036Z,10916.00
2019-04-22T09:41:46.562Z,7076.00
2019-04-22T09:44:47.610Z,18688.00
2019-04-22T09:45:37.799Z,19328.00
2019-04-22T09:46:47.204Z,18752.00
2019-04-22T09:47:48.982Z,5156.00
2019-04-22T09:49:53.200Z,3832.00
2019-04-22T09:50:58.875Z,3640.00
2019-04-22T09:51:44.957Z,3580.00
2019-04-22T09:52:51.477Z,3660.00
2019-04-22T09:53:57.785Z,3644.00
2019-04-22T09:54:52.994Z,3636.00
2019-04-22T09:55:45.126Z,3720.00
2019-04-22T09:56:47.518Z,6136.00
2019-04-22T09:57:47.029Z,19264.00
2019-04-22T09:58:46.272Z,12136.00
2019-04-22T09:59:52.511Z,6144.00
2019-04-22T10:00:54.176Z,4584.00
2019-04-22T10:01:40.990Z,5200.00
2019-04-22T10:02:53.512Z,8828.00
2019-04-22T10:03:51.674Z,12856.00
2019-04-22T10:04:46.683Z,22176.00
2019-04-22T10:05:52.490Z,15264.00
2019-04-22T10:06:41.135Z,14628.00
2019-04-22T10:07:47.359Z,22880.00
2019-04-22T10:08:52.652Z,14912.00
2019-04-22T10:10:49.065Z,67936.00
2019-04-22T10:11:45.166Z,12256.00
2019-04-22T10:12:42.838Z,44512.00
2019-04-22T10:13:50.830Z,20480.00
2019-04-22T10:14:45.647Z,54240.00
2019-04-22T10:15:46.892Z,21760.00
2019-04-22T10:17:47.280Z,24832.00
2019-04-22T10:18:46.422Z,23200.00
2019-04-22T10:19:51.710Z,0.00
2019-04-22T10:20:45.878Z,8268.00
2019-04-22T10:22:02.948Z,18400.00
2019-04-22T10:22:46.474Z,8092.00
2019-04-22T10:23:45.367Z,8480.00
2019-04-22T10:24:49.509Z,29504.00
2019-04-22T10:25:45.912Z,33024.00
2019-04-22T10:27:00.037Z,22976.00
2019-04-22T10:27:47.720Z,9872.00
2019-04-22T10:28:53.096Z,7040.00
2019-04-22T10:29:52.247Z,21728.00
2019-04-22T10:30:47.434Z,27872.00
2019-04-22T10:31:43.671Z,17184.00
2019-04-22T10:32:42.049Z,12192.00
2019-04-22T10:33:38.170Z,6416.00
2019-04-22T10:34:32.514Z,6564.00
2019-04-22T10:35:23.586Z,6016.00
2019-04-22T10:36:21.463Z,4792.00
2019-04-22T10:37:22.402Z,4808.00
2019-04-22T10:38:20.307Z,5720.00
2019-04-22T10:39:20.439Z,6600.00
2019-04-22T10:40:21.745Z,6036.00
2019-04-22T10:41:20.702Z,12576.00
2019-04-22T10:42:20.852Z,9112.00
2019-04-22T10:43:21.109Z,9644.00
2019-04-22T10:44:21.321Z,7756.00
2019-04-22T10:45:21.843Z,15360.00
2019-04-22T10:46:20.346Z,6684.00
2019-04-22T10:47:20.354Z,24240.00
2019-04-22T10:48:22.033Z,22176.00
2019-04-22T10:49:20.418Z,32640.00
2019-04-22T10:50:20.670Z,16064.00
2019-04-22T10:51:20.372Z,8532.00
2019-04-22T10:52:21.605Z,5248.00
2019-04-22T10:53:21.661Z,4892.00
2019-04-22T10:54:20.385Z,4856.00
2019-04-22T10:55:21.317Z,5452.00
2019-04-22T10:56:20.964Z,13280.00
2019-04-22T10:57:20.402Z,5576.00
2019-04-22T10:58:20.973Z,24960.00
2019-04-22T10:59:20.677Z,36384.00
2019-04-22T11:00:21.671Z,23232.00
2019-04-22T11:01:21.170Z,12516.00
2019-04-22T11:02:21.481Z,38560.00
2019-04-22T11:03:20.503Z,7800.00
2019-04-22T11:04:21.583Z,32800.00
2019-04-22T11:05:21.886Z,30880.00
2019-04-22T11:06:21.284Z,37824.00
2019-04-22T11:07:25.246Z,23808.00
2019-04-22T11:08:31.520Z,32288.00
2019-04-22T11:09:23.356Z,24256.00
2019-04-22T11:10:36.775Z,28608.00
2019-04-22T11:11:30.188Z,36384.00
2019-04-22T11:12:23.359Z,65536.00
2019-04-22T11:13:22.110Z,31200.00
2019-04-22T11:14:21.065Z,36928.00
2019-04-22T11:15:20.500Z,7968.00
2019-04-22T11:16:21.420Z,18592.00
2019-04-22T11:17:21.747Z,129856.00
2019-04-22T11:18:20.516Z,35104.00
2019-04-22T11:19:21.407Z,20576.00
2019-04-22T11:20:21.798Z,1760.00
2019-04-22T11:21:20.539Z,5208.00
2019-04-22T11:22:24.521Z,9188.00
2019-04-22T11:23:20.695Z,5564.00
2019-04-22T11:24:21.000Z,6156.00
2019-04-22T11:25:21.647Z,4868.00
2019-04-22T11:26:21.852Z,9792.00
2019-04-22T11:27:21.201Z,8460.00
2019-04-22T11:28:20.624Z,5880.00
2019-04-22T11:29:21.416Z,3928.00
2019-04-22T11:30:23.823Z,3652.00
2019-04-22T11:31:20.742Z,4040.00
2019-04-22T11:32:20.607Z,3804.00
2019-04-22T11:33:20.705Z,3976.00
2019-04-22T11:34:21.374Z,4320.00
2019-04-22T11:35:21.841Z,4400.00
2019-04-22T11:36:21.783Z,4828.00
2019-04-22T11:37:20.833Z,4892.00
2019-04-22T11:38:20.643Z,4792.00
2019-04-22T11:39:21.753Z,4420.00
2019-04-22T11:40:31.655Z,3944.00
2019-04-22T11:41:21.599Z,6428.00
2019-04-22T11:42:20.668Z,4156.00
2019-04-22T11:43:21.944Z,8048.00
2019-04-22T11:44:21.399Z,3788.00
2019-04-22T11:45:21.510Z,5652.00
2019-04-22T11:46:21.101Z,4712.00
2019-04-22T11:47:21.473Z,3988.00
2019-04-22T11:48:21.449Z,4256.00
2019-04-22T11:49:21.869Z,6664.00
2019-04-22T11:50:21.817Z,5796.00
2019-04-22T11:51:22.034Z,6112.00
2019-04-22T11:52:20.723Z,5784.00
2019-04-22T11:53:20.752Z,5964.00
2019-04-22T11:54:21.089Z,8068.00
2019-04-22T11:55:20.745Z,8552.00
2019-04-22T11:56:20.924Z,8640.00
2019-04-22T11:57:21.146Z,8252.00
2019-04-22T12:01:28.905Z,8544.00
2019-04-22T12:02:33.122Z,4120.00
2019-04-22T12:05:59.868Z,4564.00
2019-04-22T12:07:00.129Z,6288.00
2019-04-22T12:07:59.641Z,5356.00
2019-04-22T12:08:59.688Z,7368.00
2019-04-22T12:09:59.822Z,4896.00
2019-04-22T12:11:03.596Z,4308.00
2019-04-22T12:11:59.965Z,9208.00
2019-04-22T12:13:03.923Z,6184.00
2019-04-22T12:14:00.179Z,4068.00
2019-04-22T12:15:01.096Z,3876.00
2019-04-22T12:16:00.921Z,5320.00
2019-04-22T12:18:43.069Z,3840.00
2019-04-22T12:19:42.116Z,9404.00
2019-04-22T12:26:44.457Z,11668.00
2019-04-22T12:30:04.982Z,15680.00
2019-04-22T12:38:41.817Z,12020.00
